createdAt,value
2019-02-19T00:00:12.909Z,-1.40
2019-02-19T00:02:44.132Z,-1.40
2019-02-19T00:05:14.101Z,-1.40
2019-02-19T00:07:43.653Z,-1.40
2019-02-19T00:10:13.288Z,-1.40
2019-02-19T00:12:42.833Z,-1.50
2019-02-19T00:15:12.325Z,-1.50
2019-02-19T00:17:42.149Z,-1.50
2019-02-19T00:20:11.646Z,-1.50
2019-02-19T00:22:42.810Z,-1.60
2019-02-19T00:25:12.304Z,-1.60
2019-02-19T00:27:41.849Z,-1.60
2019-02-19T00:30:11.409Z,-1.60
2019-02-19T00:32:40.966Z,-1.60
2019-02-19T00:35:10.540Z,-1.60
2019-02-19T00:37:40.081Z,-1.60
2019-02-19T00:40:10.741Z,-1.60
2019-02-19T00:42:40.254Z,-1.60
2019-02-19T00:45:16.476Z,-1.70
2019-02-19T00:47:40.982Z,-1.70
2019-02-19T00:50:10.637Z,-1.70
2019-02-19T00:52:40.138Z,-1.70
2019-02-19T00:55:09.971Z,-1.80
2019-02-19T00:57:39.717Z,-1.80
2019-02-19T01:00:11.577Z,-1.80
2019-02-19T01:02:41.077Z,-1.80
2019-02-19T01:05:10.624Z,-1.80
2019-02-19T01:07:40.131Z,-1.90
2019-02-19T01:10:09.913Z,-1.90
2019-02-19T01:12:40.608Z,-1.80
2019-02-19T01:15:10.716Z,-1.80
2019-02-19T01:17:40.485Z,-1.80
2019-02-19T01:20:10.365Z,-1.80
2019-02-19T01:22:39.871Z,-1.70
2019-02-19T01:25:10.067Z,-1.70
2019-02-19T01:27:39.571Z,-1.70
2019-02-19T01:30:10.458Z,-1.70
2019-02-19T01:32:39.957Z,-1.80
2019-02-19T01:35:09.675Z,-1.80
2019-02-19T01:37:39.182Z,-1.90
2019-02-19T01:40:09.553Z,-1.90
2019-02-19T01:42:39.137Z,-1.90
2019-02-19T01:45:09.522Z,-2.00
2019-02-19T01:47:39.174Z,-2.00
2019-02-19T01:50:09.681Z,-2.00
2019-02-19T01:52:39.191Z,-2.00
2019-02-19T01:55:09.097Z,-2.00
2019-02-19T01:57:38.606Z,-2.00
2019-02-19T02:00:10.661Z,-2.00
2019-02-19T02:02:40.244Z,-2.00
2019-02-19T02:05:09.849Z,-2.10
2019-02-19T02:07:39.591Z,-2.10
2019-02-19T02:10:09.302Z,-2.20
2019-02-19T02:12:39.112Z,-2.20
2019-02-19T02:15:09.695Z,-2.20
2019-02-19T02:17:39.260Z,-2.30
2019-02-19T02:20:08.902Z,-2.30
2019-02-19T02:22:38.758Z,-2.30
2019-02-19T02:25:08.441Z,-2.40
2019-02-19T02:27:37.946Z,-2.40
2019-02-19T02:30:08.434Z,-2.50
2019-02-19T02:32:38.006Z,-2.50
2019-02-19T02:35:07.697Z,-2.50
2019-02-19T02:37:37.205Z,-2.50
2019-02-19T02:40:08.296Z,-2.50
2019-02-19T02:42:37.788Z,-2.50
2019-02-19T02:45:07.404Z,-2.50
2019-02-19T02:47:36.903Z,-2.60
2019-02-19T02:50:06.825Z,-2.60
2019-02-19T02:52:36.317Z,-2.60
2019-02-19T02:55:06.011Z,-2.60
2019-02-19T02:57:35.501Z,-2.60
2019-02-19T03:00:07.859Z,-2.50
2019-02-19T03:02:37.430Z,-2.60
2019-02-19T03:05:08.568Z,-2.60
2019-02-19T03:07:39.705Z,-2.60
2019-02-19T03:10:09.317Z,-2.60
2019-02-19T03:12:39.401Z,-2.60
2019-02-19T03:15:09.584Z,-2.60
2019-02-19T03:17:39.085Z,-2.60
2019-02-19T03:20:08.800Z,-2.60
2019-02-19T03:22:38.298Z,-2.70
2019-02-19T03:25:08.286Z,-2.70
2019-02-19T03:27:37.789Z,-2.70
2019-02-19T03:30:10.090Z,-2.70
2019-02-19T03:32:39.595Z,-2.70
2019-02-19T03:35:09.303Z,-2.70
2019-02-19T03:37:39.341Z,-2.70
2019-02-19T03:40:08.955Z,-2.80
2019-02-19T03:42:38.521Z,-2.80
2019-02-19T03:45:09.606Z,-2.70
2019-02-19T03:47:39.175Z,-2.60
2019-02-19T03:50:08.778Z,-2.70
2019-02-19T03:52:38.363Z,-2.70
2019-02-19T03:55:08.378Z,-2.80
2019-02-19T03:57:37.919Z,-2.80
2019-02-19T04:00:09.317Z,-2.90
2019-02-19T04:02:38.823Z,-2.90
2019-02-19T04:05:08.527Z,-3.00
2019-02-19T04:07:38.390Z,-3.00
2019-02-19T04:10:09.181Z,-3.00
2019-02-19T04:12:38.729Z,-3.10
2019-02-19T04:15:08.741Z,-3.10
2019-02-19T04:17:38.437Z,-3.00
2019-02-19T04:20:09.080Z,-3.00
2019-02-19T04:22:38.622Z,-3.00
2019-02-19T04:25:08.192Z,-3.00
2019-02-19T04:27:37.734Z,-3.00
2019-02-19T04:30:09.057Z,-3.00
2019-02-19T04:32:38.605Z,-2.90
2019-02-19T04:35:08.634Z,-2.80
2019-02-19T04:37:38.334Z,-2.80
2019-02-19T04:40:08.605Z,-2.80
2019-02-19T04:42:38.327Z,-2.80
2019-02-19T04:45:07.990Z,-2.80
2019-02-19T04:47:37.546Z,-2.80
2019-02-19T04:50:08.312Z,-2.70
2019-02-19T04:52:37.832Z,-2.80
2019-02-19T04:55:08.063Z,-2.80
2019-02-19T04:57:37.605Z,-2.80
2019-02-19T05:00:11.150Z,-2.90
2019-02-19T05:02:40.701Z,-2.90
2019-02-19T05:05:11.414Z,-2.80
2019-02-19T05:07:41.245Z,-2.80
2019-02-19T05:10:10.784Z,-2.70
2019-02-19T05:12:40.460Z,-2.70
2019-02-19T05:15:11.205Z,-2.70
2019-02-19T05:17:40.826Z,-2.70
2019-02-19T05:20:10.568Z,-2.70
2019-02-19T05:22:40.482Z,-2.70
2019-02-19T05:25:09.992Z,-2.70
2019-02-19T05:27:39.657Z,-2.70
2019-02-19T05:30:11.242Z,-2.70
2019-02-19T05:32:40.841Z,-2.60
2019-02-19T05:35:10.333Z,-2.60
2019-02-19T05:37:39.877Z,-2.60
2019-02-19T05:40:10.072Z,-2.60
2019-02-19T05:42:39.621Z,-2.60
2019-02-19T05:45:10.372Z,-2.50
2019-02-19T05:47:39.910Z,-2.50
2019-02-19T05:50:10.260Z,-2.50
2019-02-19T05:52:39.809Z,-2.60
2019-02-19T05:55:10.627Z,-2.60
2019-02-19T05:57:40.456Z,-2.60
2019-02-19T06:00:12.378Z,-2.60
2019-02-19T06:02:41.982Z,-2.60
2019-02-19T06:05:11.553Z,-2.50
2019-02-19T06:07:41.653Z,-2.50
2019-02-19T06:10:13.417Z,-2.40
2019-02-19T06:12:42.968Z,-2.40
2019-02-19T06:15:12.905Z,-2.30
2019-02-19T06:17:42.758Z,-2.30
2019-02-19T06:20:12.342Z,-2.20
2019-02-19T06:22:44.193Z,-2.10
2019-02-19T06:25:14.364Z,-1.90
2019-02-19T06:27:43.905Z,-1.40
2019-02-19T06:30:13.853Z,-0.90
2019-02-19T06:32:43.710Z,-0.30
2019-02-19T06:35:13.261Z,0.30
2019-02-19T06:37:42.816Z,1.00
2019-02-19T06:40:17.937Z,1.20
2019-02-19T06:42:47.484Z,2.20
2019-02-19T06:45:16.969Z,2.30
2019-02-19T06:47:46.508Z,2.70
2019-02-19T06:50:16.003Z,2.90
2019-02-19T06:52:45.541Z,3.10
2019-02-19T06:55:15.034Z,3.30
2019-02-19T06:57:44.569Z,3.60
2019-02-19T07:00:14.608Z,4.50
2019-02-19T07:02:45.781Z,5.60
2019-02-19T07:05:16.916Z,5.50
2019-02-19T07:07:46.472Z,6.20
2019-02-19T07:10:16.010Z,6.70
2019-02-19T07:12:45.555Z,7.50
2019-02-19T07:15:15.097Z,8.10
2019-02-19T07:17:44.585Z,8.50
2019-02-19T07:20:14.192Z,8.80
2019-02-19T07:22:44.653Z,9.50
2019-02-19T07:25:14.266Z,10.20
2019-02-19T07:27:43.769Z,10.70
2019-02-19T07:30:13.658Z,11.30
2019-02-19T07:32:43.154Z,12.00
2019-02-19T07:35:12.698Z,11.90
2019-02-19T07:37:42.210Z,12.30
2019-02-19T07:40:11.742Z,12.80
2019-02-19T07:42:41.237Z,13.00
2019-02-19T07:45:12.415Z,13.40
2019-02-19T07:47:41.905Z,13.70
2019-02-19T07:50:12.252Z,13.10
2019-02-19T07:52:41.814Z,13.20
2019-02-19T07:55:11.620Z,13.50
2019-02-19T07:57:42.876Z,13.90
2019-02-19T08:00:15.346Z,13.30
2019-02-19T08:02:44.825Z,12.90
2019-02-19T08:05:14.360Z,12.50
2019-02-19T08:07:43.881Z,12.60
2019-02-19T08:10:13.623Z,12.30
2019-02-19T08:12:43.117Z,12.50
2019-02-19T08:15:12.725Z,12.80
2019-02-19T08:17:42.229Z,13.20
2019-02-19T08:20:16.026Z,13.20
2019-02-19T08:22:43.005Z,13.30
2019-02-19T08:25:12.596Z,14.10
2019-02-19T08:27:42.410Z,14.60
2019-02-19T08:30:12.019Z,14.10
2019-02-19T08:32:41.518Z,14.40
2019-02-19T08:35:11.143Z,14.70
2019-02-19T08:37:40.659Z,14.60
2019-02-19T08:40:10.248Z,14.30
2019-02-19T08:42:39.826Z,13.90
2019-02-19T08:45:10.205Z,14.10
2019-02-19T08:47:42.616Z,13.80
2019-02-19T08:50:11.549Z,13.40
2019-02-19T08:52:41.051Z,13.40
2019-02-19T08:55:10.718Z,13.10
2019-02-19T08:57:40.219Z,13.30
2019-02-19T09:00:11.605Z,13.60
2019-02-19T09:02:41.160Z,14.10
2019-02-19T09:05:11.661Z,14.70
2019-02-19T09:07:41.229Z,14.60
2019-02-19T09:10:11.999Z,14.50
2019-02-19T09:12:42.459Z,14.20
2019-02-19T09:15:12.467Z,13.20
2019-02-19T09:17:41.960Z,13.40
2019-02-19T09:20:11.669Z,13.90
2019-02-19T09:22:41.167Z,13.40
2019-02-19T09:25:10.721Z,12.60
2019-02-19T09:27:40.208Z,12.50
2019-02-19T09:30:13.273Z,12.70
2019-02-19T09:32:42.765Z,13.30
2019-02-19T09:35:12.404Z,13.90
2019-02-19T09:37:41.937Z,14.60
2019-02-19T09:40:11.628Z,15.30
2019-02-19T09:42:41.116Z,15.60
2019-02-19T09:45:11.112Z,16.10
2019-02-19T09:47:40.617Z,15.70
2019-02-19T09:50:10.789Z,15.50
2019-02-19T09:52:41.262Z,15.60
2019-02-19T09:55:11.758Z,16.10
2019-02-19T09:57:41.270Z,16.40
2019-02-19T10:00:13.146Z,17.00
2019-02-19T10:02:43.948Z,17.00
2019-02-19T10:05:13.850Z,16.90
2019-02-19T10:07:43.342Z,16.20
2019-02-19T10:10:21.130Z,15.50
2019-02-19T10:13:00.370Z,15.40
2019-02-19T10:15:29.911Z,15.50
2019-02-19T10:17:59.406Z,16.40
2019-02-19T10:20:28.957Z,17.70
2019-02-19T10:22:58.445Z,17.70
2019-02-19T10:25:27.989Z,16.80
2019-02-19T10:27:57.482Z,16.20
2019-02-19T10:30:27.008Z,15.50
2019-02-19T10:32:56.510Z,16.00
2019-02-19T10:35:26.013Z,16.40
2019-02-19T10:37:55.549Z,16.90
2019-02-19T10:40:25.116Z,16.40
2019-02-19T10:42:54.658Z,16.50
2019-02-19T10:45:25.986Z,16.60
2019-02-19T10:47:56.002Z,17.00
2019-02-19T10:50:25.541Z,17.20
2019-02-19T10:52:55.038Z,17.50
2019-02-19T10:55:24.541Z,17.90
2019-02-19T10:57:54.084Z,18.00
2019-02-19T11:00:24.267Z,17.90
2019-02-19T11:02:53.805Z,17.50
2019-02-19T11:05:23.298Z,16.70
2019-02-19T11:07:52.844Z,16.80
2019-02-19T11:10:22.350Z,16.70
2019-02-19T11:12:51.966Z,17.40
2019-02-19T11:15:21.461Z,18.00
2019-02-19T11:17:51.009Z,18.50
2019-02-19T11:20:22.341Z,18.60
2019-02-19T11:22:51.965Z,18.40
2019-02-19T11:25:21.470Z,18.70
2019-02-19T11:27:51.394Z,18.50
2019-02-19T11:30:20.896Z,18.00
2019-02-19T11:32:50.433Z,17.40
2019-02-19T11:35:19.922Z,16.50
2019-02-19T11:37:49.523Z,16.10
2019-02-19T11:40:19.012Z,16.00
2019-02-19T11:42:48.549Z,16.20
2019-02-19T11:45:19.181Z,16.50
2019-02-19T11:47:48.713Z,16.20
2019-02-19T11:50:19.173Z,16.20
2019-02-19T11:52:48.780Z,15.90
2019-02-19T11:55:19.983Z,15.60
2019-02-19T11:57:49.523Z,15.50
2019-02-19T12:00:23.374Z,16.10
2019-02-19T12:02:52.905Z,16.90
2019-02-19T12:05:22.402Z,17.00
2019-02-19T12:07:51.939Z,17.60
2019-02-19T12:10:21.430Z,18.00
2019-02-19T12:12:50.965Z,18.40
2019-02-19T12:15:20.497Z,18.70
2019-02-19T12:17:50.044Z,19.50
2019-02-19T12:20:19.541Z,20.00
2019-02-19T12:22:49.159Z,19.90
2019-02-19T12:25:18.713Z,20.60
2019-02-19T12:27:48.249Z,19.80
2019-02-19T12:30:19.289Z,19.60
2019-02-19T12:32:48.896Z,19.60
2019-02-19T12:35:18.461Z,19.90
2019-02-19T12:37:48.014Z,20.00
2019-02-19T12:40:17.510Z,19.10
2019-02-19T12:42:47.053Z,18.10
2019-02-19T12:45:16.544Z,18.00
2019-02-19T12:47:46.085Z,17.90
2019-02-19T12:50:16.920Z,17.70
2019-02-19T12:52:46.477Z,17.80
2019-02-19T12:55:15.967Z,18.00
2019-02-19T12:57:45.500Z,17.70
2019-02-19T13:00:19.481Z,17.30
2019-02-19T13:02:49.022Z,17.00
2019-02-19T13:05:18.509Z,16.80
2019-02-19T13:07:48.055Z,16.50
2019-02-19T13:10:17.556Z,15.70
2019-02-19T13:12:48.999Z,15.40
2019-02-19T13:15:22.113Z,15.80
2019-02-19T13:17:51.661Z,16.00
2019-02-19T13:20:21.318Z,16.20
2019-02-19T13:22:50.857Z,16.40
2019-02-19T13:25:20.421Z,16.10
2019-02-19T13:27:50.251Z,16.00
2019-02-19T13:30:21.957Z,15.40
2019-02-19T13:32:51.565Z,15.30
2019-02-19T13:35:21.094Z,15.30
2019-02-19T13:37:50.608Z,14.90
2019-02-19T13:40:20.844Z,14.60
2019-02-19T13:42:50.400Z,14.60
2019-02-19T13:45:20.033Z,14.10
2019-02-19T13:47:49.641Z,13.70
2019-02-19T13:50:22.050Z,13.30
2019-02-19T13:52:53.413Z,12.80
2019-02-19T13:55:24.619Z,12.50
2019-02-19T13:57:57.300Z,12.30
2019-02-19T14:00:28.266Z,12.10
2019-02-19T14:02:57.808Z,12.00
2019-02-19T14:05:28.341Z,11.80
2019-02-19T14:07:57.970Z,11.80
2019-02-19T14:10:27.474Z,11.70
2019-02-19T14:12:58.013Z,11.70
2019-02-19T14:15:46.986Z,11.70
2019-02-19T14:18:18.160Z,11.60
2019-02-19T14:21:01.138Z,11.50
2019-02-19T14:23:41.473Z,11.40
2019-02-19T14:26:15.689Z,11.20
2019-02-19T14:28:46.865Z,11.10
2019-02-19T14:31:32.914Z,11.00
2019-02-19T14:34:06.569Z,10.80
2019-02-19T14:36:37.697Z,10.60
2019-02-19T14:39:24.249Z,10.60
2019-02-19T14:42:07.441Z,10.50
2019-02-19T14:44:41.581Z,10.50
2019-02-19T14:47:24.606Z,10.40
2019-02-19T14:50:01.507Z,10.30
2019-02-19T14:52:45.181Z,10.20
2019-02-19T14:55:19.339Z,10.10
2019-02-19T14:58:02.138Z,10.10
2019-02-19T15:00:39.300Z,10.00
2019-02-19T15:03:12.133Z,10.00
2019-02-19T15:06:00.869Z,9.90
2019-02-19T15:08:47.987Z,9.90
2019-02-19T15:11:21.855Z,9.80
2019-02-19T15:13:58.998Z,9.80
2019-02-19T15:16:42.159Z,9.80
2019-02-19T15:19:20.001Z,9.80
2019-02-19T15:21:57.117Z,9.70
2019-02-19T15:24:44.585Z,9.70
2019-02-19T15:27:18.701Z,9.70
2019-02-19T15:29:49.831Z,9.60
2019-02-19T15:32:37.127Z,9.60
2019-02-19T15:35:20.150Z,9.60
2019-02-19T15:38:06.157Z,9.60
2019-02-19T15:40:46.153Z,9.60
2019-02-19T15:43:32.216Z,9.50
2019-02-19T15:46:03.321Z,9.50
2019-02-19T15:48:40.333Z,9.40
2019-02-19T15:51:29.358Z,9.40
2019-02-19T15:54:09.086Z,9.40
2019-02-19T15:56:58.091Z,9.30
2019-02-19T15:59:29.269Z,9.20
2019-02-19T16:02:12.275Z,9.20
2019-02-19T16:04:43.477Z,9.20
2019-02-19T16:07:16.218Z,9.10
2019-02-19T16:09:47.441Z,9.10
2019-02-19T16:12:19.183Z,9.20
2019-02-19T16:14:59.646Z,9.10
2019-02-19T16:17:46.805Z,9.00
2019-02-19T16:20:30.896Z,8.90
2019-02-19T16:23:02.037Z,8.90
2019-02-19T16:25:51.309Z,8.80
2019-02-19T16:28:38.734Z,8.70
2019-02-19T16:31:09.910Z,8.60
2019-02-19T16:33:41.045Z,8.50
2019-02-19T16:36:14.939Z,8.50
2019-02-19T16:39:04.308Z,8.40
2019-02-19T16:41:40.102Z,8.40
2019-02-19T16:44:17.321Z,8.40
2019-02-19T16:46:54.573Z,8.40
2019-02-19T16:49:43.877Z,8.40
2019-02-19T16:52:18.061Z,8.30
2019-02-19T16:54:54.780Z,8.30
2019-02-19T16:57:28.386Z,8.20
2019-02-19T17:00:15.462Z,8.20
2019-02-19T17:02:55.826Z,8.20
2019-02-19T17:05:27.994Z,8.10
2019-02-19T17:07:59.105Z,8.10
2019-02-19T17:10:32.750Z,8.20
2019-02-19T17:15:49.703Z,8.30
2019-02-19T17:18:35.609Z,8.20
2019-02-19T17:21:06.868Z,8.20
2019-02-19T17:23:43.927Z,8.10
2019-02-19T17:26:29.966Z,8.10
2019-02-19T17:29:06.846Z,8.00
2019-02-19T17:31:46.752Z,8.00
2019-02-19T17:34:17.896Z,7.90
2019-02-19T17:36:57.746Z,7.80
2019-02-19T17:39:28.922Z,7.80
2019-02-19T17:42:15.076Z,7.70
2019-02-19T17:44:49.218Z,7.60
2019-02-19T17:47:23.119Z,7.60
2019-02-19T17:50:09.122Z,7.50
2019-02-19T17:52:40.372Z,7.40
2019-02-19T17:55:11.564Z,7.40
2019-02-19T17:57:46.553Z,7.30
2019-02-19T18:00:17.690Z,7.20
2019-02-19T18:02:49.037Z,7.10
2019-02-19T18:05:20.173Z,7.10
2019-02-19T18:08:09.166Z,7.00
2019-02-19T18:10:43.706Z,7.00
2019-02-19T18:13:29.757Z,6.90
2019-02-19T18:16:16.899Z,6.80
2019-02-19T18:18:48.079Z,6.70
2019-02-19T18:21:18.611Z,6.80
2019-02-19T18:23:49.202Z,6.70
2019-02-19T18:26:18.705Z,6.70
2019-02-19T18:28:48.242Z,6.60
2019-02-19T18:31:17.739Z,6.60
2019-02-19T18:33:48.245Z,6.50
2019-02-19T18:36:17.773Z,6.50
2019-02-19T18:38:47.261Z,6.40
2019-02-19T18:41:16.786Z,6.40
2019-02-19T18:43:46.274Z,6.40
2019-02-19T18:46:15.828Z,6.40
2019-02-19T18:48:45.322Z,6.40
2019-02-19T18:51:14.853Z,6.40
2019-02-19T18:53:44.341Z,6.30
2019-02-19T18:56:13.878Z,6.30
2019-02-19T18:58:43.578Z,6.30
2019-02-19T19:01:13.142Z,6.30
2019-02-19T19:03:42.637Z,6.30
2019-02-19T19:06:12.210Z,6.30
2019-02-19T19:08:41.768Z,6.20
2019-02-19T19:11:11.306Z,6.20
2019-02-19T19:13:40.896Z,6.20
2019-02-19T19:16:10.497Z,6.20
2019-02-19T19:18:39.982Z,6.10
2019-02-19T19:21:09.526Z,6.10
2019-02-19T19:23:39.010Z,6.00
2019-02-19T19:26:08.746Z,6.00
2019-02-19T19:28:38.232Z,5.90
2019-02-19T19:31:07.770Z,5.90
2019-02-19T19:33:37.257Z,5.80
2019-02-19T19:36:07.273Z,5.80
2019-02-19T19:38:36.761Z,5.90
2019-02-19T19:41:07.285Z,5.90
2019-02-19T19:43:37.286Z,5.90
2019-02-19T19:46:07.185Z,5.90
2019-02-19T19:48:36.725Z,6.00
2019-02-19T19:51:06.227Z,6.00
2019-02-19T19:53:35.785Z,6.10
2019-02-19T19:56:05.269Z,6.10
2019-02-19T19:58:34.801Z,6.20
2019-02-19T20:01:04.363Z,6.20
2019-02-19T20:03:33.966Z,6.30
2019-02-19T20:06:04.790Z,6.30
2019-02-19T20:08:34.391Z,6.40
2019-02-19T20:11:03.879Z,6.40
2019-02-19T20:13:33.409Z,6.50
2019-02-19T20:16:02.902Z,6.50
2019-02-19T20:18:38.926Z,6.60
2019-02-19T20:21:03.547Z,6.60
2019-02-19T20:23:33.086Z,6.60
2019-02-19T20:26:02.566Z,6.60
2019-02-19T20:28:32.093Z,6.60
2019-02-19T20:31:01.664Z,6.60
2019-02-19T20:33:31.266Z,6.70
2019-02-19T20:36:00.822Z,6.70
2019-02-19T20:38:30.430Z,6.70
2019-02-19T20:41:01.313Z,6.70
2019-02-19T20:43:32.310Z,6.70
2019-02-19T20:46:01.883Z,6.70
2019-02-19T20:48:31.813Z,6.70
2019-02-19T20:51:01.359Z,6.80
2019-02-19T20:53:30.978Z,6.90
2019-02-19T20:56:00.556Z,6.90
2019-02-19T20:58:30.100Z,7.00
2019-02-19T21:00:59.673Z,7.00
2019-02-19T21:03:29.213Z,7.00
2019-02-19T21:05:58.775Z,7.00
2019-02-19T21:08:28.681Z,7.00
2019-02-19T21:10:58.173Z,7.00
2019-02-19T21:13:27.784Z,7.00
2019-02-19T21:15:58.693Z,7.00
2019-02-19T21:18:28.302Z,7.10
2019-02-19T21:20:57.797Z,7.10
2019-02-19T21:23:27.407Z,7.00
2019-02-19T21:25:56.966Z,7.00
2019-02-19T21:28:27.074Z,7.00
2019-02-19T21:30:56.565Z,7.00
2019-02-19T21:33:26.169Z,7.00
2019-02-19T21:35:57.874Z,7.10
2019-02-19T21:38:26.894Z,7.10
2019-02-19T21:40:56.448Z,7.10
2019-02-19T21:43:26.053Z,7.10
2019-02-19T21:45:56.708Z,7.10
2019-02-19T21:48:26.310Z,7.00
2019-02-19T21:50:55.871Z,7.00
2019-02-19T21:53:25.412Z,6.90
2019-02-19T21:55:54.901Z,6.90
2019-02-19T21:58:24.453Z,6.90
2019-02-19T22:00:54.409Z,6.90
2019-02-19T22:03:24.016Z,6.90
2019-02-19T22:05:53.617Z,6.90
2019-02-19T22:08:23.252Z,6.90
2019-02-19T22:10:53.962Z,6.90
2019-02-19T22:13:23.603Z,6.90
2019-02-19T22:15:53.199Z,6.90
2019-02-19T22:18:22.738Z,6.90
2019-02-19T22:20:56.985Z,6.90
2019-02-19T22:23:26.537Z,6.90
2019-02-19T22:25:56.138Z,6.90
2019-02-19T22:28:25.686Z,6.80
2019-02-19T22:30:55.210Z,6.80
2019-02-19T22:33:24.710Z,6.80
2019-02-19T22:35:54.237Z,6.60
2019-02-19T22:38:23.799Z,6.60
2019-02-19T22:40:55.442Z,6.50
2019-02-19T22:43:24.485Z,6.60
2019-02-19T22:45:54.026Z,6.60
2019-02-19T22:48:23.512Z,6.60
2019-02-19T22:50:53.192Z,6.70
2019-02-19T22:53:42.488Z,6.70
2019-02-19T22:56:16.329Z,6.60
2019-02-19T22:58:45.861Z,6.70
2019-02-19T23:01:29.314Z,6.70
2019-02-19T23:03:59.837Z,6.70
2019-02-19T23:06:30.401Z,6.80
2019-02-19T23:08:59.949Z,6.80
2019-02-19T23:11:30.122Z,6.90
2019-02-19T23:14:00.654Z,6.80
2019-02-19T23:16:30.172Z,6.90
2019-02-19T23:18:59.734Z,6.90
2019-02-19T23:21:29.225Z,6.90
2019-02-19T23:23:59.100Z,6.90
2019-02-19T23:26:28.701Z,7.00
2019-02-19T23:28:58.341Z,6.90
2019-02-19T23:31:27.874Z,6.90
2019-02-19T23:33:57.421Z,7.00
2019-02-19T23:36:28.598Z,7.00
2019-02-19T23:38:58.089Z,7.10
2019-02-19T23:41:27.631Z,7.10
2019-02-19T23:43:57.125Z,7.10
2019-02-19T23:46:26.638Z,7.00
2019-02-19T23:48:56.198Z,7.00
2019-02-19T23:51:25.754Z,7.00
2019-02-19T23:53:55.241Z,6.90
2019-02-19T23:56:24.785Z,6.80
2019-02-19T23:58:54.261Z,6.70
